Time;durP1;ratioP1;P1;durP2;ratioP2;P2;SDS_P1;SDS_P2;PMS_P1;PMS_P2;Temp;Humidity;BMP_temperature;BMP_pressure;BME280_temperature;BME280_humidity;BME280_pressure;Samples;Min_cycle;Max_cycle;Signal;HPM_P1;HPM_P2
2024/02/01 00:01:50;;;;;;;;;;;;;;;18.12;57.24;102302.78;7390725;19;1568;-81
2024/02/01 00:04:19;;;;;;;;;;;;;;;18.14;57.03;102296.38;7393737;19;1512;-81
2024/02/01 00:06:50;;;;;;;;;;;;;;;18.12;57.13;102290.25;7391300;19;1487;-72
2024/02/01 00:09:19;;;;;;;;;;;;;;;18.12;57.19;102292.94;7389674;19;1568;-72
2024/02/01 00:11:48;;;;;;;;;;;;;;;18.16;57.21;102282.91;7378415;19;1847;-72
2024/02/01 00:14:16;;;;;;;;;;;;;;;18.12;57.17;102300.97;7392505;19;1683;-72
2024/02/01 00:16:44;;;;;;;;;;;;;;;18.11;57.14;102280.50;7390283;19;1427;-71
2024/02/01 00:19:16;;;;;;;;;;;;;;;18.07;57.28;102279.81;7388111;19;1512;-72
2024/02/01 00:21:44;;;;;;;;;;;;;;;18.08;57.31;102286.03;7389270;19;1535;-71
2024/02/01 00:24:13;;;;;;;;;;;;;;;18.06;57.22;102272.75;7390213;19;1663;-72
2024/02/01 00:26:41;;;;;;;;;;;;;;;18.12;57.25;102276.84;7388737;19;1758;-72
2024/02/01 00:29:09;;;;;;;;;;;;;;;18.11;57.13;102269.81;7395062;19;1778;-72
2024/02/01 00:31:38;;;;;;;;;;;;;;;18.15;56.99;102279.38;7395022;19;1839;-72
2024/02/01 00:34:06;;;;;;;;;;;;;;;18.17;57.14;102281.97;7393742;19;1655;-72
2024/02/01 00:36:37;;;;;;;;;;;;;;;18.13;57.06;102273.25;7397348;19;1752;-72
2024/02/01 00:39:05;;;;;;;;;;;;;;;18.13;57.04;102270.56;7396904;19;1608;-72
2024/02/01 00:41:34;;;;;;;;;;;;;;;18.18;56.91;102276.47;7396761;19;1560;-72
2024/02/01 00:44:02;;;;;;;;;;;;;;;18.11;57.07;102274.31;7398137;19;1642;-72
2024/02/01 00:46:31;;;;;;;;;;;;;;;18.11;57.22;102279.66;7394982;19;1406;-71
2024/02/01 00:48:59;;;;;;;;;;;;;;;18.18;57.00;102264.91;7394059;19;1487;-72
2024/02/01 00:51:27;;;;;;;;;;;;;;;18.21;56.75;102276.31;7394555;19;1468;-72
2024/02/01 00:53:58;;;;;;;;;;;;;;;18.13;56.87;102273.25;7394493;19;1861;-72
2024/02/01 00:56:27;;;;;;;;;;;;;;;18.13;56.88;102272.38;7396641;19;1674;-72
2024/02/01 00:58:55;;;;;;;;;;;;;;;18.16;56.75;102273.03;7396808;19;1632;-72
2024/02/01 01:01:24;;;;;;;;;;;;;;;18.12;56.83;102259.94;7396657;19;1604;-71
2024/02/01 01:03:52;;;;;;;;;;;;;;;18.11;56.89;102267.13;7397281;19;1070;-72
2024/02/01 01:06:20;;;;;;;;;;;;;;;18.12;56.91;102268.81;7398364;19;1105;-72
2024/02/01 01:08:49;;;;;;;;;;;;;;;18.15;56.79;102260.63;7396639;19;1740;-72
2024/02/01 01:11:20;;;;;;;;;;;;;;;18.12;56.77;102247.41;7384038;19;1871;-72
2024/02/01 01:13:49;;;;;;;;;;;;;;;18.17;56.65;102252.50;7394166;19;1822;-72
2024/02/01 01:16:17;;;;;;;;;;;;;;;18.12;56.76;102238.53;7394408;19;1752;-72
2024/02/01 01:18:46;;;;;;;;;;;;;;;18.17;56.59;102241.78;7393940;19;1489;-72
2024/02/01 01:21:15;;;;;;;;;;;;;;;18.19;56.62;102247.91;7394947;19;1791;-72
2024/02/01 01:23:44;;;;;;;;;;;;;;;18.15;56.81;102260.63;7393375;19;1609;-72
2024/02/01 01:26:12;;;;;;;;;;;;;;;18.17;56.71;102252.50;7393446;19;1393;-72
2024/02/01 01:28:43;;;;;;;;;;;;;;;18.14;56.76;102255.34;7393896;19;1381;-72
2024/02/01 01:31:12;;;;;;;;;;;;;;;18.19;56.70;102245.25;7395799;19;1585;-72
2024/02/01 01:33:40;;;;;;;;;;;;;;;18.19;56.70;102237.22;7394145;19;1866;-73
2024/02/01 01:36:09;;;;;;;;;;;;;;;18.18;56.55;102239.00;7392539;19;1454;-72
2024/02/01 01:38:37;;;;;;;;;;;;;;;18.20;56.51;102230.88;7392352;19;1383;-72
2024/02/01 01:41:06;;;;;;;;;;;;;;;18.12;56.58;102234.03;7393627;19;1432;-72
2024/02/01 01:43:34;;;;;;;;;;;;;;;18.11;56.92;102247.53;7394424;19;1583;-72
2024/02/01 01:46:07;;;;;;;;;;;;;;;18.00;57.07;102224.94;7396010;19;1570;-72
2024/02/01 01:48:38;;;;;;;;;;;;;;;17.66;58.21;102236.78;7395311;19;1157;-72
2024/02/01 01:51:07;;;;;;;;;;;;;;;17.43;58.65;102239.00;7391191;19;1412;-72
2024/02/01 01:53:38;;;;;;;;;;;;;;;17.33;59.25;102236.91;7393704;19;1846;-72
2024/02/01 01:56:07;;;;;;;;;;;;;;;17.22;59.77;102242.91;7398001;19;1319;-81
2024/02/01 01:58:36;;;;;;;;;;;;;;;17.10;59.99;102226.59;7397965;19;1624;-82
2024/02/01 02:01:07;;;;;;;;;;;;;;;17.07;60.09;102218.78;7395785;19;1375;-81
2024/02/01 02:03:38;;;;;;;;;;;;;;;17.10;59.96;102228.41;7398997;19;1756;-81
2024/02/01 02:06:07;;;;;;;;;;;;;;;17.06;60.42;102219.72;7398508;19;1612;-81
2024/02/01 02:08:36;;;;;;;;;;;;;;;17.04;60.19;102212.72;7395438;19;1046;-81
2024/02/01 02:11:04;;;;;;;;;;;;;;;17.00;60.16;102200.50;7389150;19;1788;-81
2024/02/01 02:13:32;;;;;;;;;;;;;;;17.01;60.28;102208.44;7394993;19;1865;-81
2024/02/01 02:16:01;;;;;;;;;;;;;;;17.02;60.27;102220.84;7397085;19;1604;-81
2024/02/01 02:18:32;;;;;;;;;;;;;;;16.97;60.51;102184.63;7397121;19;1790;-81
2024/02/01 02:21:04;;;;;;;;;;;;;;;16.95;60.53;102191.88;7394135;19;1705;-82
2024/02/01 02:23:35;;;;;;;;;;;;;;;16.93;60.58;102175.06;7394375;19;1383;-81
2024/02/01 02:26:05;;;;;;;;;;;;;;;16.93;60.50;102191.09;7396401;19;1634;-81
2024/02/01 02:28:38;;;;;;;;;;;;;;;16.89;60.46;102177.03;7395500;19;1441;-81
2024/02/01 02:31:07;;;;;;;;;;;;;;;16.87;60.66;102190.50;7395880;19;1859;-81
2024/02/01 02:33:35;;;;;;;;;;;;;;;16.76;60.92;102186.69;7395936;19;1836;-81
2024/02/01 02:36:09;;;;;;;;;;;;;;;16.94;60.09;102174.97;7396064;19;1927;-81
2024/02/01 02:38:40;;;;;;;;;;;;;;;17.29;59.16;102196.16;7396822;19;1214;-82
2024/02/01 02:41:08;;;;;;;;;;;;;;;17.65;58.31;102184.22;7395967;19;1635;-81
2024/02/01 02:43:37;;;;;;;;;;;;;;;17.97;57.38;102176.94;7396228;19;1577;-81
2024/02/01 02:46:05;;;;;;;;;;;;;;;18.03;57.11;102181.94;7397115;19;1290;-81
2024/02/01 02:48:37;;;;;;;;;;;;;;;18.02;56.89;102173.97;7395640;19;1285;-81
2024/02/01 02:51:06;;;;;;;;;;;;;;;17.93;56.98;102185.28;7392150;19;1585;-81
2024/02/01 02:53:34;;;;;;;;;;;;;;;17.89;57.05;102156.00;7395711;19;1850;-81
2024/02/01 02:56:07;;;;;;;;;;;;;;;17.87;56.90;102176.66;7396800;19;1592;-81
2024/02/01 02:58:37;;;;;;;;;;;;;;;17.87;57.13;102171.28;7397007;19;1240;-81
2024/02/01 03:01:08;;;;;;;;;;;;;;;17.86;57.02;102169.56;7396854;19;1641;-81
2024/02/01 03:03:40;;;;;;;;;;;;;;;17.85;56.98;102177.72;7394800;19;1482;-82
2024/02/01 03:06:08;;;;;;;;;;;;;;;17.83;57.00;102171.56;7396688;19;1516;-82
2024/02/01 03:08:37;;;;;;;;;;;;;;;17.85;56.84;102172.34;7395710;19;1944;-81
2024/02/01 03:11:10;;;;;;;;;;;;;;;17.87;56.72;102176.66;7387002;19;1928;-80
2024/02/01 03:13:40;;;;;;;;;;;;;;;17.88;56.85;102145.38;7394403;19;1854;-81
2024/02/01 03:16:08;;;;;;;;;;;;;;;17.94;56.70;102160.22;7394983;19;1503;-81
2024/02/01 03:18:37;;;;;;;;;;;;;;;17.89;56.79;102155.16;7396212;19;1325;-81
2024/02/01 03:21:09;;;;;;;;;;;;;;;17.89;56.81;102157.84;7395927;19;1294;-81
2024/02/01 03:23:37;;;;;;;;;;;;;;;17.93;56.78;102150.47;7394517;19;1252;-81
2024/02/01 03:26:09;;;;;;;;;;;;;;;17.95;56.67;102143.22;7395460;19;1648;-81
2024/02/01 03:28:38;;;;;;;;;;;;;;;17.90;56.73;102151.50;7396230;19;1160;-81
2024/02/01 03:31:07;;;;;;;;;;;;;;;17.86;56.67;102156.19;7395887;19;1635;-81
2024/02/01 03:33:38;;;;;;;;;;;;;;;17.86;56.65;102158.84;7392774;19;1865;-81
2024/02/01 03:36:08;;;;;;;;;;;;;;;17.96;56.74;102164.50;7394282;19;1485;-80
2024/02/01 03:38:37;;;;;;;;;;;;;;;17.91;56.56;102177.34;7391954;19;1413;-73
2024/02/01 03:41:05;;;;;;;;;;;;;;;17.84;56.66;102150.06;7393203;19;1273;-81
2024/02/01 03:43:36;;;;;;;;;;;;;;;17.92;56.54;102154.09;7392934;19;1575;-81
2024/02/01 03:46:05;;;;;;;;;;;;;;;17.93;56.32;102147.81;7394501;19;1593;-72
2024/02/01 03:48:33;;;;;;;;;;;;;;;17.92;56.49;102146.06;7391552;19;1377;-72
2024/02/01 03:51:03;;;;;;;;;;;;;;;17.88;56.67;102145.38;7388990;19;1714;-72
2024/02/01 03:53:29;;;;;;;;;;;;;;;17.91;56.47;102147.03;7388416;19;1851;-81
2024/02/01 03:55:58;;;;;;;;;;;;;;;17.87;56.64;102133.84;7391307;19;1303;-72
2024/02/01 03:58:26;;;;;;;;;;;;;;;17.91;56.38;102130.97;7391212;19;1530;-72
2024/02/01 04:00:59;;;;;;;;;;;;;;;17.93;56.43;102139.78;7393382;19;987;-72
2024/02/01 04:03:27;;;;;;;;;;;;;;;18.31;55.75;102139.19;7400202;19;1660;-81
2024/02/01 04:06:00;;;;;;;;;;;;;;;18.64;54.82;102128.97;7401186;19;1489;-81
2024/02/01 04:08:29;;;;;;;;;;;;;;;18.62;55.07;102132.69;7399997;19;1327;-72
2024/02/01 04:10:57;;;;;;;;;;;;;;;18.73;55.01;102129.34;7397558;19;1833;-72
2024/02/01 04:13:26;;;;;;;;;;;;;;;18.74;55.01;102134.59;7385669;19;1871;-81
2024/02/01 04:15:57;;;;;;;;;;;;;;;18.61;55.29;102122.94;7396449;19;1584;-72
2024/02/01 04:18:25;;;;;;;;;;;;;;;18.51;55.53;102133.41;7400823;19;1559;-81
2024/02/01 04:20:53;;;;;;;;;;;;;;;18.39;55.45;102129.69;7398426;19;1298;-80
2024/02/01 04:23:22;;;;;;;;;;;;;;;18.26;55.83;102123.38;7397923;19;1552;-82
2024/02/01 04:25:50;;;;;;;;;;;;;;;18.22;55.88;102122.75;7398544;19;1516;-71
2024/02/01 04:28:19;;;;;;;;;;;;;;;18.39;55.44;102112.78;7398652;19;1453;-73
2024/02/01 04:30:50;;;;;;;;;;;;;;;18.60;55.01;102115.88;7395363;19;1617;-80
2024/02/01 04:33:22;;;;;;;;;;;;;;;18.65;54.86;102098.53;7397993;19;1843;-73
2024/02/01 04:35:50;;;;;;;;;;;;;;;18.88;54.57;102113.13;7397890;19;1132;-72
2024/02/01 04:38:20;;;;;;;;;;;;;;;19.00;54.25;102115.94;7398995;19;1389;-72
2024/02/01 04:40:49;;;;;;;;;;;;;;;18.96;54.13;102107.25;7398035;19;1595;-72
2024/02/01 04:43:19;;;;;;;;;;;;;;;18.89;54.38;102111.31;7400976;19;1488;-81
2024/02/01 04:45:48;;;;;;;;;;;;;;;18.93;54.65;102117.31;7400116;19;1632;-80
2024/02/01 04:48:16;;;;;;;;;;;;;;;18.79;54.63;102126.25;7405070;19;1655;-72
2024/02/01 04:50:49;;;;;;;;;;;;;;;18.62;55.39;102109.47;7396206;19;1556;-81
2024/02/01 04:53:18;;;;;;;;;;;;;;;18.43;55.69;102122.31;7397197;19;1854;-73
2024/02/01 04:55:49;;;;;;;;;;;;;;;18.42;55.90;102128.63;7398620;19;1503;-81
2024/02/01 04:58:18;;;;;;;;;;;;;;;18.35;55.16;102117.47;7403740;19;1452;-72
2024/02/01 05:00:47;;;;;;;;;;;;;;;18.53;54.99;102118.09;7398200;19;1611;-81
2024/02/01 05:03:16;;;;;;;;;;;;;;;18.72;54.26;102112.41;7402251;19;1656;-71
2024/02/01 05:05:47;;;;;;;;;;;;;;;18.53;54.97;102110.06;7394640;19;1657;-72
2024/02/01 05:08:16;;;;;;;;;;;;;;;18.62;54.94;102111.25;7396417;19;1141;-77
2024/02/01 05:10:46;;;;;;;;;;;;;;;18.71;54.38;102123.22;7369955;19;12974;-72
2024/02/01 05:13:15;;;;;;;;;;;;;;;18.66;54.64;102108.31;7380530;19;1847;-72
2024/02/01 05:15:46;;;;;;;;;;;;;;;18.72;54.50;102116.88;7391387;19;1509;-80
2024/02/01 05:18:14;;;;;;;;;;;;;;;18.75;54.67;102124.72;7394640;19;1901;-80
2024/02/01 05:20:46;;;;;;;;;;;;;;;18.72;54.43;102122.25;7397745;19;1683;-74
2024/02/01 05:23:17;;;;;;;;;;;;;;;18.77;54.48;102112.09;7396042;19;1401;-81
2024/02/01 05:25:45;;;;;;;;;;;;;;;18.82;54.18;102118.91;7399373;19;1005;-72
2024/02/01 05:28:14;;;;;;;;;;;;;;;18.80;54.44;102111.91;7398258;19;1917;-72
2024/02/01 05:30:44;;;;;;;;;;;;;;;18.80;54.73;102133.34;7396249;19;1868;-80
2024/02/01 05:33:13;;;;;;;;;;;;;;;18.65;55.08;102114.59;7397406;19;1569;-72
2024/02/01 05:35:42;;;;;;;;;;;;;;;18.19;56.10;102117.56;7393655;19;1965;-81
2024/02/01 05:38:12;;;;;;;;;;;;;;;17.77;56.96;102121.94;7397330;19;1602;-81
2024/02/01 05:40:43;;;;;;;;;;;;;;;17.48;58.16;102116.53;7396049;19;1688;-72
2024/02/01 05:43:12;;;;;;;;;;;;;;;17.75;57.64;102123.00;7399912;19;1803;-72
2024/02/01 05:45:40;;;;;;;;;;;;;;;18.34;56.09;102114.88;7397212;19;1711;-72
2024/02/01 05:48:12;;;;;;;;;;;;;;;18.67;55.26;102122.56;7398966;19;1046;-72
2024/02/01 05:50:40;;;;;;;;;;;;;;;18.79;55.23;102111.06;7398075;19;1872;-82
2024/02/01 05:53:09;;;;;;;;;;;;;;;18.83;55.15;102106.34;7397267;19;1537;-74
2024/02/01 05:55:37;;;;;;;;;;;;;;;18.92;54.78;102108.44;7393704;19;1853;-81
2024/02/01 05:58:09;;;;;;;;;;;;;;;18.99;54.28;102111.56;7398311;19;1159;-81
2024/02/01 06:00:37;;;;;;;;;;;;;;;18.95;54.25;102102.84;7399454;19;1583;-72
2024/02/01 06:03:08;;;;;;;;;;;;;;;18.88;54.43;102105.09;7398428;19;1886;-81
2024/02/01 06:05:36;;;;;;;;;;;;;;;18.77;54.61;102106.72;7400428;19;1760;-83
2024/02/01 06:08:05;;;;;;;;;;;;;;;18.63;54.29;102103.13;7398474;19;1477;-82
2024/02/01 06:10:33;;;;;;;;;;;;;;;18.53;53.70;102099.34;7400524;19;1467;-72
2024/02/01 06:13:02;;;;;;;;;;;;;;;18.55;53.97;102099.25;7384459;19;1266;-72
2024/02/01 06:15:33;;;;;;;;;;;;;;;18.58;54.03;102097.22;7395429;19;1824;-81
2024/02/01 06:18:01;;;;;;;;;;;;;;;18.90;53.77;102106.78;7398093;19;1600;-81
2024/02/01 06:20:29;;;;;;;;;;;;;;;19.19;52.94;102112.88;7400063;19;1270;-82
2024/02/01 06:22:58;;;;;;;;;;;;;;;19.31;52.72;102100.47;7399895;19;1878;-81
2024/02/01 06:25:26;;;;;;;;;;;;;;;19.43;52.33;102100.47;7398495;19;1576;-81
2024/02/01 06:27:55;;;;;;;;;;;;;;;19.34;52.46;102102.94;7399312;19;1269;-82
2024/02/01 06:30:23;;;;;;;;;;;;;;;19.20;53.08;102114.59;7398170;19;1372;-81
2024/02/01 06:32:54;;;;;;;;;;;;;;;18.95;53.89;102110.91;7396498;19;1595;-83
2024/02/01 06:35:23;;;;;;;;;;;;;;;18.98;53.37;102107.13;7397667;19;1842;-84
2024/02/01 06:38:04;;;;;;;;;;;;;;;18.96;53.29;102107.25;7398825;19;1353;-85
2024/02/01 06:41:06;;;;;;;;;;;;;;;18.83;53.59;102111.72;7397479;19;1501;-75
2024/02/01 06:43:51;;;;;;;;;;;;;;;18.88;53.10;102110.47;7395724;19;1542;-75
2024/02/01 06:46:23;;;;;;;;;;;;;;;18.79;53.64;102100.34;7394813;19;1738;-75
2024/02/01 06:49:11;;;;;;;;;;;;;;;18.84;53.56;102100.91;7393086;19;1597;-75
2024/02/01 06:51:43;;;;;;;;;;;;;;;18.84;53.92;102110.75;7398003;19;1094;-84
2024/02/01 06:54:28;;;;;;;;;;;;;;;18.87;53.67;102110.53;7397530;19;1853;-84
2024/02/01 06:57:03;;;;;;;;;;;;;;;18.91;53.55;102109.38;7395784;19;1525;-83
2024/02/01 06:59:44;;;;;;;;;;;;;;;18.94;53.75;102092.22;7398496;19;1732;-84
2024/02/01 07:02:14;;;;;;;;;;;;;;;18.97;53.69;102098.25;7396268;19;1157;-84
2024/02/01 07:04:50;;;;;;;;;;;;;;;19.01;53.62;102093.53;7396659;19;1473;-85
2024/02/01 07:07:26;;;;;;;;;;;;;;;18.94;53.97;102089.53;7395941;19;1338;-86
2024/02/01 07:10:06;;;;;;;;;;;;;;;18.96;53.73;102091.19;7397277;19;1273;-83
2024/02/01 07:12:41;;;;;;;;;;;;;;;19.00;53.92;102081.97;7388229;19;1262;-82
2024/02/01 07:15:30;;;;;;;;;;;;;;;19.01;53.81;102080.13;7393628;19;1873;-73
2024/02/01 07:17:59;;;;;;;;;;;;;;;19.06;53.68;102075.34;7389181;19;1690;-73
2024/02/01 07:20:46;;;;;;;;;;;;;;;18.88;54.00;102072.94;7388643;19;1394;-73
2024/02/01 07:23:33;;;;;;;;;;;;;;;18.80;54.22;102064.56;7392924;19;1090;-74
2024/02/01 07:26:16;;;;;;;;;;;;;;;18.74;54.00;102058.69;7380832;19;1674;-73
2024/02/01 07:58:39;;;;;;;;;;;;;;;18.89;53.07;102004.09;7389911;19;1485;-79
2024/02/01 08:01:14;;;;;;;;;;;;;;;18.90;52.86;102013.88;7395999;19;1494;-81
2024/02/01 08:03:55;;;;;;;;;;;;;;;18.95;53.11;101997.47;7398279;19;1282;-73
2024/02/01 08:09:12;;;;;;;;;;;;;;;19.06;52.76;101974.31;7398082;19;1056;-74
2024/02/01 08:11:41;;;;;;;;;;;;;;;18.57;52.75;101913.34;7397907;19;1306;-73
2024/02/01 08:14:09;;;;;;;;;;;;;;;19.05;52.88;101994.03;7386196;19;1857;-73
2024/02/01 08:16:39;;;;;;;;;;;;;;;19.11;52.81;101986.53;7394558;19;1525;-72
2024/02/01 08:19:08;;;;;;;;;;;;;;;19.16;52.67;101977.22;7395382;19;1362;-72
2024/02/01 08:21:39;;;;;;;;;;;;;;;19.19;52.86;101989.53;7395659;19;1564;-72
2024/02/01 08:24:12;;;;;;;;;;;;;;;19.28;52.52;101986.22;7394727;19;1956;-72
2024/02/01 08:26:42;;;;;;;;;;;;;;;19.32;52.72;101978.78;7396247;19;1160;-72
2024/02/01 08:29:13;;;;;;;;;;;;;;;19.42;52.52;101985.25;7394262;19;1909;-72
2024/02/01 08:31:41;;;;;;;;;;;;;;;19.44;52.92;101984.16;7395014;19;1775;-72
2024/02/01 08:34:14;;;;;;;;;;;;;;;19.52;53.10;101994.34;7394235;19;1862;-74
2024/02/01 08:36:43;;;;;;;;;;;;;;;19.45;53.16;101988.56;7395271;19;1747;-72
2024/02/01 08:39:15;;;;;;;;;;;;;;;19.52;53.53;101975.59;7395899;19;1421;-72
2024/02/01 08:41:44;;;;;;;;;;;;;;;19.10;54.10;101980.31;7396792;19;1581;-73
2024/02/01 08:44:12;;;;;;;;;;;;;;;18.67;55.44;101978.72;7393732;19;1738;-72
2024/02/01 08:46:41;;;;;;;;;;;;;;;18.61;55.35;101970.25;7396210;19;1157;-73
2024/02/01 08:49:09;;;;;;;;;;;;;;;19.12;54.19;101973.03;7390026;19;1924;-72
2024/02/01 08:51:43;;;;;;;;;;;;;;;19.33;53.75;101965.28;7397217;19;1525;-72
2024/02/01 08:54:14;;;;;;;;;;;;;;;19.04;54.27;101968.19;7395352;19;2719;-72
2024/02/01 08:56:44;;;;;;;;;;;;;;;18.78;55.00;101969.97;7391461;19;1941;-72
2024/02/01 08:59:22;;;;;;;;;;;;;;;18.73;55.27;101969.41;7396319;19;1608;-73
2024/02/01 09:01:52;;;;;;;;;;;;;;;19.14;54.32;101955.00;7392467;19;1623;-72
2024/02/01 09:04:22;;;;;;;;;;;;;;;19.26;54.36;101950.63;7395273;19;1437;-72
2024/02/01 09:06:53;;;;;;;;;;;;;;;18.93;55.14;101959.19;7394024;19;1449;-72
2024/02/01 09:09:34;;;;;;;;;;;;;;;18.62;55.78;101948.72;7392844;19;1474;-72
2024/02/01 09:12:04;;;;;;;;;;;;;;;18.79;55.17;101949.38;7395052;19;1810;-73
2024/02/01 09:14:33;;;;;;;;;;;;;;;19.33;53.90;101949.19;7385480;19;1852;-72
2024/02/01 09:17:02;;;;;;;;;;;;;;;19.31;54.04;101951.13;7394399;19;1846;-81
2024/02/01 09:19:31;;;;;;;;;;;;;;;19.03;54.64;101928.09;7394800;19;1866;-81
2024/02/01 09:22:00;;;;;;;;;;;;;;;18.69;55.71;101939.28;7394910;19;1723;-81
2024/02/01 09:24:31;;;;;;;;;;;;;;;18.58;55.96;101923.09;7394596;19;1420;-81
2024/02/01 09:27:00;;;;;;;;;;;;;;;19.11;55.25;101927.56;7396006;19;1335;-81
2024/02/01 09:29:34;;;;;;;;;;;;;;;19.48;53.95;101904.34;7397863;19;1334;-81
2024/02/01 09:32:02;;;;;;;;;;;;;;;19.46;54.14;101914.31;7397201;19;2092;-80
2024/02/01 09:34:30;;;;;;;;;;;;;;;19.21;54.87;101901.78;7395525;19;1853;-80
2024/02/01 09:36:59;;;;;;;;;;;;;;;18.91;55.47;101894.94;7397410;19;1584;-79
2024/02/01 09:39:29;;;;;;;;;;;;;;;18.66;56.10;101883.25;7399368;19;1846;-72
2024/02/01 09:42:00;;;;;;;;;;;;;;;18.83;55.44;101876.72;7397742;19;1333;-73
2024/02/01 09:44:37;;;;;;;;;;;;;;;19.24;54.75;101894.41;7399900;19;1111;-73
2024/02/01 09:47:07;;;;;;;;;;;;;;;19.42;54.54;101881.50;7398312;19;1337;-73
2024/02/01 09:49:37;;;;;;;;;;;;;;;19.35;54.50;101863.25;7399430;19;1109;-72
2024/02/01 09:52:09;;;;;;;;;;;;;;;19.13;55.10;101850.53;7397753;19;1215;-73
2024/02/01 09:54:39;;;;;;;;;;;;;;;18.92;55.76;101866.31;7398081;19;1829;-73
2024/02/01 09:57:14;;;;;;;;;;;;;;;18.76;56.31;101861.16;7396192;19;1585;-72
2024/02/01 09:59:42;;;;;;;;;;;;;;;19.23;55.16;101849.75;7396136;19;1289;-73
2024/02/01 10:02:12;;;;;;;;;;;;;;;19.44;54.52;101838.47;7397199;19;1340;-73
2024/02/01 10:04:42;;;;;;;;;;;;;;;19.48;54.45;101862.25;7400243;19;1506;-73
2024/02/01 10:07:10;;;;;;;;;;;;;;;19.15;55.22;101843.25;7395864;19;1303;-72
2024/02/01 10:09:39;;;;;;;;;;;;;;;18.92;56.04;101842.19;7400089;19;1553;-72
2024/02/01 10:12:10;;;;;;;;;;;;;;;18.74;56.48;101838.97;7398208;19;1477;-73
2024/02/01 10:14:39;;;;;;;;;;;;;;;19.24;55.47;101834.56;7390546;19;1258;-72
2024/02/01 10:17:08;;;;;;;;;;;;;;;19.71;54.59;101823.97;7396515;19;1842;-72
2024/02/01 10:19:37;;;;;;;;;;;;;;;19.52;54.90;101827.13;7400488;19;943;-72
2024/02/01 10:22:10;;;;;;;;;;;;;;;19.17;55.85;101826.06;7396342;19;1919;-72
2024/02/01 10:24:45;;;;;;;;;;;;;;;18.86;56.13;101830.97;7398140;19;1803;-72
2024/02/01 10:27:19;;;;;;;;;;;;;;;19.01;55.89;101820.09;7397314;19;1821;-73
2024/02/01 10:29:49;;;;;;;;;;;;;;;19.39;54.68;101811.94;7397843;19;1652;-73
2024/02/01 10:32:18;;;;;;;;;;;;;;;19.53;54.60;101805.56;7396059;19;1488;-73
2024/02/01 10:34:50;;;;;;;;;;;;;;;19.28;55.26;101818.13;7399223;19;1226;-73
2024/02/01 10:37:19;;;;;;;;;;;;;;;19.00;55.92;101813.00;7399026;19;1235;-73
2024/02/01 10:39:52;;;;;;;;;;;;;;;18.77;56.44;101802.09;7399589;19;1517;-73
2024/02/01 10:42:24;;;;;;;;;;;;;;;19.14;55.49;101798.63;7397918;19;1929;-73
2024/02/01 10:44:54;;;;;;;;;;;;;;;19.45;54.88;101806.13;7395948;19;1579;-73
2024/02/01 10:47:25;;;;;;;;;;;;;;;19.44;55.03;101793.72;7395605;19;1445;-72
2024/02/01 10:49:56;;;;;;;;;;;;;;;19.01;56.20;101782.56;7395709;19;1135;-73
2024/02/01 10:52:27;;;;;;;;;;;;;;;18.70;56.58;101784.72;7398073;19;1559;-73
2024/02/01 10:54:56;;;;;;;;;;;;;;;18.79;56.52;101788.59;7396458;19;1411;-74
2024/02/01 10:57:27;;;;;;;;;;;;;;;19.11;55.61;101772.91;7398018;19;1718;-73
2024/02/01 11:00:05;;;;;;;;;;;;;;;19.43;54.69;101770.53;7396410;19;1843;-73
2024/02/01 11:02:34;;;;;;;;;;;;;;;19.13;55.57;101772.78;7397637;19;1796;-80
2024/02/01 11:05:08;;;;;;;;;;;;;;;18.77;56.44;101763.72;7397589;19;1478;-80
2024/02/01 11:07:37;;;;;;;;;;;;;;;18.60;56.76;101760.44;7396198;19;1500;-80
2024/02/01 11:10:13;;;;;;;;;;;;;;;18.93;56.12;101748.28;7395921;19;1554;-73
2024/02/01 11:12:43;;;;;;;;;;;;;;;19.26;55.43;101749.47;7393633;19;1355;-73
2024/02/01 11:15:16;;;;;;;;;;;;;;;19.21;55.34;101754.31;7385824;19;1862;-73
2024/02/01 11:17:46;;;;;;;;;;;;;;;18.85;56.52;101747.97;7394564;19;1763;-72
2024/02/01 11:20:22;;;;;;;;;;;;;;;18.58;56.94;101738.25;7397616;19;1222;-80
2024/02/01 11:22:57;;;;;;;;;;;;;;;18.79;56.38;101735.00;7397520;19;1672;-80
2024/02/01 11:25:28;;;;;;;;;;;;;;;19.16;55.58;101724.28;7396276;19;1652;-79
2024/02/01 11:28:00;;;;;;;;;;;;;;;19.33;55.16;101734.63;7397508;19;1034;-80
2024/02/01 11:30:34;;;;;;;;;;;;;;;18.95;56.06;101719.53;7394822;19;1848;-80
2024/02/01 11:33:03;;;;;;;;;;;;;;;18.65;56.99;101734.16;7395161;19;1336;-80
2024/02/01 11:35:32;;;;;;;;;;;;;;;18.63;56.55;101728.06;7396177;19;1864;-80
2024/02/01 11:38:02;;;;;;;;;;;;;;;18.97;55.86;101698.84;7393996;19;1503;-72
2024/02/01 11:40:30;;;;;;;;;;;;;;;19.28;55.21;101704.63;7395321;19;1191;-72
2024/02/01 11:43:05;;;;;;;;;;;;;;;19.12;55.46;101696.00;7395742;19;1342;-73
2024/02/01 11:45:37;;;;;;;;;;;;;;;18.76;56.52;101698.56;7395482;19;1539;-71
2024/02/01 11:48:14;;;;;;;;;;;;;;;18.59;56.77;101702.44;7390849;19;1490;-72
2024/02/01 11:50:44;;;;;;;;;;;;;;;18.86;56.24;101685.38;7388343;19;1682;-72
2024/02/01 11:53:18;;;;;;;;;;;;;;;19.17;55.82;101688.47;7395775;19;1372;-74
2024/02/01 11:55:46;;;;;;;;;;;;;;;19.07;55.81;101669.53;7391017;19;1841;-73
2024/02/01 11:58:15;;;;;;;;;;;;;;;18.75;56.61;101672.72;7392293;19;1724;-73
2024/02/01 12:00:49;;;;;;;;;;;;;;;18.54;57.23;101669.75;7392616;19;1762;-72
2024/02/01 12:03:19;;;;;;;;;;;;;;;18.78;56.81;101666.28;7395959;19;975;-82
2024/02/01 12:05:51;;;;;;;;;;;;;;;18.98;56.21;101654.13;7396974;19;934;-73
2024/02/01 12:08:20;;;;;;;;;;;;;;;19.15;55.96;101655.56;7395723;19;1465;-81
2024/02/01 12:10:49;;;;;;;;;;;;;;;18.86;56.66;101650.53;7396720;19;1937;-82
2024/02/01 12:13:19;;;;;;;;;;;;;;;18.54;57.43;101651.00;7395587;19;1524;-81
2024/02/01 12:15:52;;;;;;;;;;;;;;;18.60;57.30;101647.03;7385002;19;1846;-73
2024/02/01 12:18:21;;;;;;;;;;;;;;;18.89;56.66;101639.59;7395568;19;1251;-81
2024/02/01 12:20:50;;;;;;;;;;;;;;;19.20;56.04;101624.75;7391457;19;1940;-73
2024/02/01 12:23:19;;;;;;;;;;;;;;;18.98;56.35;101609.44;7399425;19;1829;-82
2024/02/01 12:25:49;;;;;;;;;;;;;;;18.68;57.20;101634.81;7403613;19;1680;-82
2024/02/01 12:28:20;;;;;;;;;;;;;;;18.53;57.68;101641.28;7401841;19;1130;-82
2024/02/01 12:30:54;;;;;;;;;;;;;;;18.71;57.13;101625.69;7405605;19;1445;-82
2024/02/01 12:33:23;;;;;;;;;;;;;;;19.02;56.66;101613.59;7400805;19;1659;-73
2024/02/01 12:35:51;;;;;;;;;;;;;;;19.05;56.57;101617.84;7409180;19;1859;-80
2024/02/01 12:38:20;;;;;;;;;;;;;;;18.80;57.39;101618.81;7399152;19;1642;-73
2024/02/01 12:40:49;;;;;;;;;;;;;;;18.53;57.71;101617.19;7402333;19;1770;-81
2024/02/01 12:43:24;;;;;;;;;;;;;;;18.76;57.32;101618.19;7402964;19;1483;-82
2024/02/01 12:45:55;;;;;;;;;;;;;;;18.99;56.79;101605.78;7403309;19;1003;-81
2024/02/01 12:48:23;;;;;;;;;;;;;;;19.07;56.70;101592.63;7400890;19;974;-81
2024/02/01 12:50:52;;;;;;;;;;;;;;;18.86;57.27;101607.66;7398299;19;1886;-74
2024/02/01 12:53:21;;;;;;;;;;;;;;;18.55;57.80;101599.16;7403508;19;1600;-73
2024/02/01 12:55:52;;;;;;;;;;;;;;;18.42;58.11;101609.94;7401790;19;1853;-81
2024/02/01 12:58:21;;;;;;;;;;;;;;;18.76;57.41;101606.59;7400448;19;1850;-72
2024/02/01 13:00:49;;;;;;;;;;;;;;;18.98;57.00;101592.47;7403493;19;1657;-72
2024/02/01 13:03:21;;;;;;;;;;;;;;;19.31;56.17;101598.94;7404429;19;1681;-74
2024/02/01 13:05:49;;;;;;;;;;;;;;;18.97;56.92;101597.00;7403021;19;1365;-80
2024/02/01 13:08:17;;;;;;;;;;;;;;;18.61;57.60;101592.50;7400795;19;1814;-73
2024/02/01 13:10:49;;;;;;;;;;;;;;;18.46;58.17;101583.75;7401360;19;1567;-73
2024/02/01 13:13:17;;;;;;;;;;;;;;;18.68;57.80;101581.25;7401440;19;1560;-73
2024/02/01 13:15:48;;;;;;;;;;;;;;;18.91;57.33;101580.53;7390654;19;1805;-80
2024/02/01 13:18:19;;;;;;;;;;;;;;;18.98;57.00;101558.50;7399805;19;1579;-73
2024/02/01 13:20:49;;;;;;;;;;;;;;;18.68;57.61;101562.47;7401432;19;1837;-72
2024/02/01 13:23:18;;;;;;;;;;;;;;;18.46;58.21;101565.00;7400929;19;1070;-78
2024/02/01 13:25:47;;;;;;;;;;;;;;;18.54;58.21;101557.25;7401656;19;1519;-74
2024/02/01 13:28:42;;;;;;;;;;;;;;;18.84;57.58;101558.66;7399533;19;1010;-73
2024/02/01 13:31:11;;;;;;;;;;;;;;;19.05;57.15;101559.72;7397557;19;1923;-72
2024/02/01 13:33:43;;;;;;;;;;;;;;;18.75;57.89;101546.78;7400105;19;1673;-72
2024/02/01 13:36:11;;;;;;;;;;;;;;;18.46;58.44;101548.94;7396937;19;1859;-76
2024/02/01 13:38:39;;;;;;;;;;;;;;;18.37;58.46;101555.00;7398863;19;1104;-81